createdAt,value
2024-03-12T00:02:11.480Z,97049.86
2024-03-12T00:04:42.174Z,97046.41
2024-03-12T00:07:11.286Z,97046.30
2024-03-12T00:09:39.880Z,97043.70
2024-03-12T00:12:08.625Z,97047.52
2024-03-12T00:14:36.690Z,97043.38
2024-03-12T00:17:05.193Z,97040.45
2024-03-12T00:19:34.955Z,97042.39
2024-03-12T00:22:03.393Z,97042.92
2024-03-12T00:24:31.669Z,97040.77
2024-03-12T00:26:59.943Z,97038.55
2024-03-12T00:29:28.014Z,97035.16
2024-03-12T00:31:56.802Z,97029.30
2024-03-12T00:34:26.820Z,97026.52
2024-03-12T00:36:54.984Z,97033.27
2024-03-12T00:39:23.390Z,97031.20
2024-03-12T00:41:51.612Z,97033.98
2024-03-12T00:44:21.168Z,97033.65
2024-03-12T00:46:50.285Z,97034.71
2024-03-12T00:49:18.370Z,97027.59
2024-03-12T00:51:46.678Z,97030.48
2024-03-12T00:54:15.090Z,97026.74
2024-03-12T00:56:43.415Z,97024.18
2024-03-12T00:59:11.558Z,97020.91
2024-03-12T01:01:40.114Z,97025.04
2024-03-12T01:04:08.412Z,97022.46
2024-03-12T01:06:36.711Z,97024.36
2024-03-12T01:09:07.620Z,97023.60
2024-03-12T01:11:35.774Z,97022.59
2024-03-12T01:14:06.502Z,97024.66
2024-03-12T01:16:34.834Z,97020.42
2024-03-12T01:19:03.136Z,97017.09
2024-03-12T01:21:33.640Z,97019.73
2024-03-12T01:24:05.900Z,97019.34
2024-03-12T01:26:35.833Z,97013.49
2024-03-12T01:29:04.722Z,97010.27
2024-03-12T01:31:33.052Z,97012.36
2024-03-12T01:34:01.388Z,97012.70
2024-03-12T01:36:36.041Z,97016.34
2024-03-12T01:39:09.462Z,97017.04
2024-03-12T01:41:43.199Z,97013.49
2024-03-12T01:44:12.564Z,97008.66
2024-03-12T01:46:41.190Z,97004.20
2024-03-12T01:49:10.537Z,97000.23
2024-03-12T01:51:39.281Z,96997.52
2024-03-12T01:54:07.612Z,96995.45
2024-03-12T01:56:36.562Z,96988.89
2024-03-12T01:59:04.883Z,96985.25
2024-03-12T02:01:33.229Z,96985.48
2024-03-12T02:04:03.570Z,96983.35
2024-03-12T02:06:31.889Z,96983.35
2024-03-12T02:09:04.619Z,96982.58
2024-03-12T02:11:32.979Z,96983.64
2024-03-12T02:14:01.153Z,96988.91
2024-03-12T02:16:29.583Z,96993.17
2024-03-12T02:18:57.848Z,96993.10
2024-03-12T02:21:26.161Z,96988.91
2024-03-12T02:23:54.640Z,96990.60
2024-03-12T02:26:22.755Z,96989.22
2024-03-12T02:28:51.383Z,96990.35
2024-03-12T02:31:21.067Z,96990.30
2024-03-12T02:33:49.492Z,96992.14
2024-03-12T02:36:18.586Z,96992.62
2024-03-12T02:38:47.356Z,96992.09
2024-03-12T02:41:16.563Z,96994.70
2024-03-12T02:43:44.624Z,96997.43
2024-03-12T02:46:12.982Z,96999.66
2024-03-12T02:48:43.332Z,96998.42
2024-03-12T02:51:11.632Z,96990.47
2024-03-12T02:53:39.897Z,96988.34
2024-03-12T02:56:08.148Z,96985.84
2024-03-12T02:58:37.198Z,96988.95
2024-03-12T03:01:06.337Z,96993.20
2024-03-12T03:03:35.458Z,96993.30
2024-03-12T03:06:04.152Z,96983.92
2024-03-12T03:08:32.698Z,96984.45
2024-03-12T03:11:01.173Z,96988.77
2024-03-12T03:13:29.549Z,96998.50
2024-03-12T03:15:58.107Z,97002.05
2024-03-12T03:18:28.818Z,97003.02
2024-03-12T03:20:57.700Z,97000.49
2024-03-12T03:23:25.988Z,97001.05
2024-03-12T03:25:54.160Z,97002.05
2024-03-12T03:28:22.347Z,96999.80
2024-03-12T03:30:51.315Z,96996.06
2024-03-12T03:33:19.408Z,96992.14
2024-03-12T03:35:47.510Z,96992.58
2024-03-12T03:38:15.622Z,96994.19
2024-03-12T03:40:43.786Z,96992.32
2024-03-12T03:43:13.752Z,96994.54
2024-03-12T03:45:42.718Z,96990.45
2024-03-12T03:48:10.942Z,96990.42
2024-03-12T03:50:39.177Z,96988.75
2024-03-12T03:53:09.318Z,96988.31
2024-03-12T03:55:40.250Z,96992.35
2024-03-12T03:58:08.793Z,96990.62
2024-03-12T04:00:38.190Z,96991.79
2024-03-12T04:03:10.597Z,96993.29
2024-03-12T04:05:38.861Z,96995.81
2024-03-12T04:08:07.732Z,96997.82
2024-03-12T04:10:35.893Z,96998.30
2024-03-12T04:13:05.720Z,96997.67
2024-03-12T04:15:35.231Z,96993.35
2024-03-12T04:18:03.896Z,96987.98
2024-03-12T04:20:32.261Z,96986.97
2024-03-12T04:23:02.562Z,96989.13
2024-03-12T04:25:30.798Z,96986.48
2024-03-12T04:27:59.389Z,96989.29
2024-03-12T04:30:27.753Z,96991.05
2024-03-12T04:32:56.064Z,96989.19
2024-03-12T04:35:24.170Z,96994.67
2024-03-12T04:37:52.323Z,96993.39
2024-03-12T04:40:22.637Z,96991.39
2024-03-12T04:42:51.111Z,96992.25
2024-03-12T04:45:19.667Z,96992.99
2024-03-12T04:47:50.166Z,96993.73
2024-03-12T04:50:20.422Z,96995.44
2024-03-12T04:52:48.827Z,97000.30
2024-03-12T04:55:17.541Z,97000.52
2024-03-12T04:57:45.773Z,97001.47
2024-03-12T05:00:21.062Z,97004.19
2024-03-12T05:02:52.276Z,97003.89
2024-03-12T05:05:22.598Z,97005.83
2024-03-12T05:07:52.097Z,97004.71
2024-03-12T05:10:23.943Z,97003.94
2024-03-12T05:12:52.877Z,97004.44
2024-03-12T05:15:22.517Z,97005.27
2024-03-12T05:17:50.835Z,97006.73
2024-03-12T05:20:23.923Z,97009.73
2024-03-12T05:22:52.326Z,97011.17
2024-03-12T05:25:24.813Z,97016.06
2024-03-12T05:27:53.239Z,97015.48
2024-03-12T05:30:23.296Z,97015.26
2024-03-12T05:32:54.926Z,97016.08
2024-03-12T05:35:24.401Z,97016.73
2024-03-12T05:38:23.760Z,97018.08
2024-03-12T05:40:58.880Z,97023.63
2024-03-12T05:43:48.165Z,97023.64
2024-03-12T05:46:36.696Z,97023.42
2024-03-12T05:49:05.374Z,97024.13
2024-03-12T05:51:36.299Z,97027.48
2024-03-12T05:54:06.415Z,97023.39
2024-03-12T05:56:38.973Z,97023.20
2024-03-12T05:59:08.620Z,97024.23
2024-03-12T06:01:37.274Z,97027.59
2024-03-12T06:04:06.291Z,97029.22
2024-03-12T06:06:34.952Z,97029.33
2024-03-12T06:09:03.187Z,97031.24
2024-03-12T06:11:32.716Z,97033.52
2024-03-12T06:14:04.241Z,97035.81
2024-03-12T06:16:33.870Z,97037.92
2024-03-12T06:19:02.233Z,97040.28
2024-03-12T06:21:31.117Z,97043.76
2024-03-12T06:23:59.747Z,97046.89
2024-03-12T06:26:29.380Z,97048.30
2024-03-12T06:28:58.274Z,97048.80
2024-03-12T06:31:26.461Z,97048.98
2024-03-12T06:33:55.676Z,97050.73
2024-03-12T06:36:23.813Z,97052.48
2024-03-12T06:38:53.456Z,97053.52
2024-03-12T06:41:22.110Z,97053.73
2024-03-12T06:43:50.413Z,97055.54
2024-03-12T06:46:20.933Z,97056.48
2024-03-12T06:48:49.881Z,97054.88
2024-03-12T06:51:18.940Z,97057.23
2024-03-12T06:53:46.994Z,97055.20
2024-03-12T06:56:18.353Z,97055.04
2024-03-12T06:58:47.232Z,97058.59
2024-03-12T07:01:16.636Z,97060.16
2024-03-12T07:03:47.149Z,97060.70
2024-03-12T07:06:16.637Z,97061.48
2024-03-12T07:08:45.872Z,97061.11
2024-03-12T07:11:15.997Z,97060.58
2024-03-12T07:13:49.923Z,97066.77
2024-03-12T07:16:18.199Z,97066.52
2024-03-12T07:18:47.942Z,97071.69
2024-03-12T07:21:17.414Z,97071.08
2024-03-12T07:23:45.669Z,97069.31
2024-03-12T07:26:13.857Z,97069.04
2024-03-12T07:28:44.121Z,97068.88
2024-03-12T07:31:12.499Z,97067.33
2024-03-12T07:33:40.890Z,97069.76
2024-03-12T07:36:09.403Z,97068.22
2024-03-12T07:38:39.705Z,97068.13
2024-03-12T07:41:10.411Z,97068.48
2024-03-12T07:43:39.033Z,97065.64
2024-03-12T07:46:08.681Z,97063.04
2024-03-12T07:48:38.320Z,97067.46
2024-03-12T07:51:10.434Z,97068.34
2024-03-12T07:53:38.693Z,97065.18
2024-03-12T07:56:08.098Z,97067.30
2024-03-12T07:58:36.906Z,97069.14
2024-03-12T08:01:05.403Z,97071.00
2024-03-12T08:03:33.659Z,97069.84
2024-03-12T08:06:10.356Z,97067.34
2024-03-12T08:08:38.534Z,97065.10
2024-03-12T08:11:06.729Z,97069.14
2024-03-12T08:13:36.231Z,97065.50
2024-03-12T08:16:04.720Z,97058.69
2024-03-12T08:18:33.208Z,97055.91
2024-03-12T08:21:03.558Z,97057.23
2024-03-12T08:23:31.689Z,97053.94
2024-03-12T08:26:01.064Z,97057.15
2024-03-12T08:28:32.606Z,97054.35
2024-03-12T08:31:07.968Z,97052.39
2024-03-12T08:33:43.021Z,97052.03
2024-03-12T08:36:12.280Z,97049.73
2024-03-12T08:38:40.956Z,97049.04
2024-03-12T08:41:11.819Z,97047.48
2024-03-12T08:43:39.980Z,97047.55
2024-03-12T08:46:08.712Z,97046.08
2024-03-12T08:48:37.205Z,97042.45
2024-03-12T08:51:05.730Z,97038.84
2024-03-12T08:53:37.005Z,97038.22
2024-03-12T08:56:05.860Z,97036.15
2024-03-12T08:58:34.432Z,97032.91
2024-03-12T09:01:03.433Z,97032.05
2024-03-12T09:03:31.937Z,97031.33
2024-03-12T09:06:01.237Z,97034.91
2024-03-12T09:08:30.936Z,97039.89
2024-03-12T09:10:59.213Z,97040.73
2024-03-12T09:13:27.510Z,97036.52
2024-03-12T09:15:56.834Z,97032.93
2024-03-12T09:18:27.554Z,97033.58
2024-03-12T09:20:56.858Z,97034.38
2024-03-12T09:23:26.724Z,97031.60
2024-03-12T09:25:56.269Z,97030.14
2024-03-12T09:28:24.397Z,97033.15
2024-03-12T09:30:52.776Z,97033.51
2024-03-12T09:33:21.330Z,97032.14
2024-03-12T09:35:50.377Z,97032.11
2024-03-12T09:38:18.888Z,97032.26
2024-03-12T09:40:52.049Z,97035.14
2024-03-12T09:43:23.826Z,97033.73
2024-03-12T09:45:52.686Z,97037.95
2024-03-12T09:48:23.235Z,97038.27
2024-03-12T09:50:51.906Z,97039.61
2024-03-12T09:53:22.374Z,97038.50
2024-03-12T09:55:51.454Z,97036.05
2024-03-12T09:58:19.709Z,97037.80
2024-03-12T10:00:48.541Z,97039.84
2024-03-12T10:03:20.976Z,97042.09
2024-03-12T10:05:49.223Z,97044.95
2024-03-12T10:08:19.184Z,97044.31
2024-03-12T10:10:49.261Z,97047.05
2024-03-12T10:13:19.011Z,97043.62
2024-03-12T10:15:55.440Z,97045.86
2024-03-12T10:18:44.989Z,97045.20
2024-03-12T10:21:13.307Z,97041.79
2024-03-12T10:23:42.381Z,97043.35
2024-03-12T10:26:17.793Z,97043.55
2024-03-12T10:28:47.175Z,97047.18
2024-03-12T10:31:16.226Z,97041.83
2024-03-12T10:33:50.233Z,97043.52
2024-03-12T10:36:35.385Z,97044.80
2024-03-12T10:39:13.506Z,97043.91
2024-03-12T10:41:45.343Z,97041.52
2024-03-12T10:44:13.527Z,97038.48
2024-03-12T10:46:44.782Z,97037.46
2024-03-12T10:49:16.819Z,97035.45
2024-03-12T10:51:46.278Z,97031.70
2024-03-12T10:54:17.750Z,97033.73
2024-03-12T10:56:47.677Z,97030.95
2024-03-12T10:59:17.647Z,97030.77
2024-03-12T11:01:49.294Z,97031.46
2024-03-12T11:04:18.800Z,97035.80
2024-03-12T11:06:49.928Z,97034.63
2024-03-12T11:09:23.312Z,97031.34
2024-03-12T11:11:51.914Z,97030.94
2024-03-12T11:14:21.918Z,97029.36
2024-03-12T11:16:50.590Z,97029.15
2024-03-12T11:19:26.196Z,97025.33
2024-03-12T11:22:02.615Z,97023.89
2024-03-12T11:24:31.664Z,97023.26
2024-03-12T11:27:01.774Z,97016.79
2024-03-12T11:30:19.876Z,97010.94
2024-03-12T11:32:51.408Z,97009.61
2024-03-12T11:35:19.692Z,97004.30
2024-03-12T11:38:11.775Z,96999.05
2024-03-12T11:40:52.780Z,96995.63
2024-03-12T11:43:54.336Z,96995.36
2024-03-12T11:46:49.432Z,96994.70
2024-03-12T11:49:33.210Z,96996.63
2024-03-12T11:52:02.603Z,96993.73
2024-03-12T11:54:40.841Z,96991.17
2024-03-12T11:57:22.875Z,96988.77
2024-03-12T11:59:52.307Z,96985.92
2024-03-12T12:02:21.974Z,96986.16
2024-03-12T12:04:57.516Z,96986.89
2024-03-12T12:07:29.266Z,96986.27
2024-03-12T12:09:57.601Z,96988.05
2024-03-12T12:12:28.043Z,96985.16
2024-03-12T12:14:56.156Z,96980.69
2024-03-12T12:17:25.583Z,96975.81
2024-03-12T12:20:17.955Z,96973.93
2024-03-12T12:22:47.768Z,96975.80
2024-03-12T12:25:20.717Z,96972.36
2024-03-12T12:27:49.175Z,96972.75
2024-03-12T12:30:22.136Z,96972.77
2024-03-12T12:32:52.781Z,96969.16
2024-03-12T12:35:22.325Z,96968.92
2024-03-12T12:37:52.146Z,96964.72
2024-03-12T12:40:22.987Z,96963.30
2024-03-12T12:42:52.050Z,96961.95
2024-03-12T12:45:20.519Z,96964.31
2024-03-12T12:47:50.524Z,96966.36
2024-03-12T12:50:31.132Z,96964.71
2024-03-12T12:53:02.226Z,96962.68
2024-03-12T12:55:33.798Z,96961.85
2024-03-12T12:58:04.404Z,96964.16
2024-03-12T13:00:37.770Z,96962.86
2024-03-12T13:03:17.750Z,96959.67
2024-03-12T13:05:47.786Z,96959.66
2024-03-12T13:08:21.378Z,96958.56
2024-03-12T13:11:01.166Z,96957.49
2024-03-12T13:13:29.678Z,96965.77
2024-03-12T13:16:10.373Z,96968.67
2024-03-12T13:18:40.623Z,96965.61
2024-03-12T13:21:09.647Z,96964.86
2024-03-12T13:23:38.062Z,96966.53
2024-03-12T13:26:07.522Z,96964.51
2024-03-12T13:28:36.657Z,96964.48
2024-03-12T13:31:06.129Z,96966.73
2024-03-12T13:33:34.793Z,96965.65
2024-03-12T13:36:03.081Z,96968.39
2024-03-12T13:38:31.295Z,96967.21
2024-03-12T13:40:59.463Z,96964.92
2024-03-12T13:43:28.472Z,96963.66
2024-03-12T13:45:57.721Z,96964.28
2024-03-12T13:48:28.302Z,96956.21
2024-03-12T13:51:01.496Z,96956.02
2024-03-12T13:53:29.816Z,96957.80
2024-03-12T13:55:59.468Z,96956.55
2024-03-12T13:58:28.201Z,96954.59
2024-03-12T14:00:58.818Z,96954.58
2024-03-12T14:03:32.135Z,96954.23
2024-03-12T14:06:03.522Z,96952.04
2024-03-12T14:08:31.877Z,96951.84
2024-03-12T14:11:00.063Z,96952.53
2024-03-12T14:13:28.855Z,96950.72
2024-03-12T14:15:57.242Z,96950.52
2024-03-12T14:18:27.897Z,96953.72
2024-03-12T14:20:56.641Z,96955.06
2024-03-12T14:23:24.978Z,96953.08
2024-03-12T14:25:54.438Z,96954.95
2024-03-12T14:28:23.164Z,96951.60
2024-03-12T14:30:51.564Z,96951.94
2024-03-12T14:33:19.942Z,96951.23
2024-03-12T14:35:48.357Z,96952.83
2024-03-12T14:38:16.743Z,96951.48
2024-03-12T14:40:45.127Z,96950.35
2024-03-12T14:43:13.499Z,96952.81
2024-03-12T14:45:43.135Z,96951.09
2024-03-12T14:48:11.989Z,96951.40
2024-03-12T14:50:40.391Z,96951.89
2024-03-12T14:53:09.209Z,96951.36
2024-03-12T14:55:38.098Z,96950.39
2024-03-12T14:58:08.919Z,96952.13
2024-03-12T15:00:40.655Z,96952.10
2024-03-12T15:03:09.235Z,96952.39
2024-03-12T15:05:37.728Z,96951.12
2024-03-12T15:08:06.337Z,96952.15
2024-03-12T15:10:34.504Z,96952.09
2024-03-12T15:13:02.896Z,96951.38
2024-03-12T15:15:31.624Z,96951.20
2024-03-12T15:18:01.711Z,96952.10
2024-03-12T15:20:31.248Z,96951.59
2024-03-12T15:23:00.246Z,96946.88
2024-03-12T15:25:29.320Z,96946.02
2024-03-12T15:27:58.557Z,96948.86
2024-03-12T15:30:27.184Z,96950.08
2024-03-12T15:32:55.902Z,96953.73
2024-03-12T15:35:25.427Z,96952.94
2024-03-12T15:37:55.372Z,96954.94
2024-03-12T15:40:24.157Z,96957.73
2024-03-12T15:42:52.855Z,96956.41
2024-03-12T15:45:22.119Z,96958.14
2024-03-12T15:47:50.470Z,96958.63
2024-03-12T15:50:18.774Z,96958.78
2024-03-12T15:52:47.643Z,96955.39
2024-03-12T15:55:16.166Z,96957.44
2024-03-12T15:57:47.030Z,96964.64
2024-03-12T16:00:16.094Z,96964.24
2024-03-12T16:02:45.255Z,96970.91
2024-03-12T16:05:13.856Z,96974.59
2024-03-12T16:07:42.046Z,96975.07
2024-03-12T16:10:11.346Z,96980.70
2024-03-12T16:12:42.947Z,96981.63
2024-03-12T16:15:15.123Z,96981.66
2024-03-12T16:17:44.026Z,96981.64
2024-03-12T16:20:16.576Z,96978.16
2024-03-12T16:22:44.908Z,96978.98
2024-03-12T16:25:16.734Z,96972.20
2024-03-12T16:27:45.209Z,96968.05
2024-03-12T16:30:15.725Z,96966.66
2024-03-12T16:32:45.361Z,96963.64
2024-03-12T16:35:16.595Z,96963.30
2024-03-12T16:37:45.429Z,96965.52
2024-03-12T16:40:14.353Z,96964.50
2024-03-12T16:42:44.493Z,96965.83
2024-03-12T16:45:13.736Z,96966.88
2024-03-12T16:47:43.372Z,96975.30
2024-03-12T16:50:12.431Z,96976.17
2024-03-12T16:52:41.622Z,96977.84
2024-03-12T16:55:10.937Z,96980.48
2024-03-12T16:57:39.874Z,96984.16
2024-03-12T17:00:15.494Z,96987.11
2024-03-12T17:02:45.430Z,96988.25
2024-03-12T17:05:23.783Z,96985.56
2024-03-12T17:07:56.980Z,96979.53
2024-03-12T17:10:26.375Z,96981.33
2024-03-12T17:12:55.252Z,96984.09
2024-03-12T17:15:24.643Z,96985.11
2024-03-12T17:17:53.537Z,96983.59
2024-03-12T17:20:22.250Z,96985.55
2024-03-12T17:22:52.018Z,96985.41
2024-03-12T17:25:20.942Z,96982.73
2024-03-12T17:27:52.979Z,96982.88
2024-03-12T17:30:25.615Z,96986.81
2024-03-12T17:32:56.420Z,96984.46
2024-03-12T17:35:25.371Z,96987.09
2024-03-12T17:37:59.640Z,96987.36
2024-03-12T17:40:29.274Z,96987.27
2024-03-12T17:43:01.146Z,96987.08
2024-03-12T17:45:31.520Z,96986.85
2024-03-12T17:48:02.418Z,96987.35
2024-03-12T17:50:32.096Z,96986.00
2024-03-12T17:53:07.670Z,96987.65
2024-03-12T17:55:37.472Z,96987.38
2024-03-12T17:58:10.257Z,96987.59
2024-03-12T18:00:39.291Z,96989.68
2024-03-12T18:03:09.295Z,96988.30
2024-03-12T18:05:38.264Z,96989.41
2024-03-12T18:08:11.465Z,96991.34
2024-03-12T18:10:41.145Z,96992.83
2024-03-12T18:13:11.971Z,96991.09
2024-03-12T18:15:41.396Z,96994.46
2024-03-12T18:18:11.097Z,96997.48
2024-03-12T18:20:42.143Z,96994.88
2024-03-12T18:23:10.393Z,96993.60
2024-03-12T18:25:38.714Z,96991.41
2024-03-12T18:28:08.986Z,96994.83
2024-03-12T18:30:37.752Z,96996.63
2024-03-12T18:33:06.239Z,96995.73
2024-03-12T18:35:34.597Z,96999.19
2024-03-12T18:38:04.096Z,96999.86
2024-03-12T18:40:33.185Z,97007.16
2024-03-12T18:43:04.754Z,97007.60
2024-03-12T18:45:33.424Z,97008.23
2024-03-12T18:48:02.340Z,97008.89
2024-03-12T18:50:33.172Z,97007.19
2024-03-12T18:53:01.945Z,97006.75
2024-03-12T18:55:31.580Z,97008.37
2024-03-12T18:58:00.981Z,97007.27
2024-03-12T19:00:30.126Z,97003.66
2024-03-12T19:03:12.985Z,97003.27
2024-03-12T19:05:41.782Z,96999.84
2024-03-12T19:08:10.717Z,97001.27
2024-03-12T19:10:39.552Z,97000.24
2024-03-12T19:13:11.142Z,97000.47
2024-03-12T19:15:44.201Z,96997.52
2024-03-12T19:18:15.413Z,96998.91
2024-03-12T19:20:44.082Z,97000.10
2024-03-12T19:23:12.867Z,97000.73
2024-03-12T19:25:41.519Z,97001.54
2024-03-12T19:28:10.162Z,96999.86
2024-03-12T19:30:39.828Z,96997.67
2024-03-12T19:33:09.847Z,96995.56
2024-03-12T19:35:39.976Z,96996.85
2024-03-12T19:38:10.410Z,96994.85
2024-03-12T19:40:39.238Z,96995.04
2024-03-12T19:43:08.575Z,96993.97
2024-03-12T19:45:37.412Z,96991.65
2024-03-12T19:48:07.306Z,96993.23
2024-03-12T19:50:36.892Z,96993.55
2024-03-12T19:53:05.074Z,96994.18
2024-03-12T19:55:35.240Z,96995.84
2024-03-12T19:58:05.588Z,96995.48
2024-03-12T20:00:35.155Z,96992.99
2024-03-12T20:03:07.779Z,96993.64
2024-03-12T20:05:37.371Z,96992.77
2024-03-12T20:08:10.420Z,96996.23
2024-03-12T20:10:39.006Z,96994.36
2024-03-12T20:13:07.733Z,96996.00
2024-03-12T20:15:38.317Z,96996.52
2024-03-12T20:18:07.616Z,96995.73
2024-03-12T20:20:36.840Z,96997.19
2024-03-12T20:23:07.268Z,96996.61
2024-03-12T20:25:35.889Z,96997.63
2024-03-12T20:28:10.836Z,96998.59
2024-03-12T20:30:40.758Z,96998.02
2024-03-12T20:33:12.059Z,96994.08
2024-03-12T20:35:40.516Z,96995.46
2024-03-12T20:38:10.277Z,96996.02
2024-03-12T20:40:38.698Z,96994.27
2024-03-12T20:43:07.496Z,96996.13
2024-03-12T20:45:39.444Z,97001.50
2024-03-12T20:48:11.772Z,96998.61
2024-03-12T20:50:41.312Z,96995.96
2024-03-12T20:53:11.567Z,96994.50
2024-03-12T20:55:40.637Z,96993.73
2024-03-12T20:58:09.012Z,96996.59
2024-03-12T21:00:39.196Z,96996.08
2024-03-12T21:03:11.188Z,96997.08
2024-03-12T21:05:40.745Z,96996.20
2024-03-12T21:08:09.338Z,96994.85
2024-03-12T21:10:39.424Z,96992.17
2024-03-12T21:13:07.949Z,96990.32
2024-03-12T21:15:36.354Z,96992.58
2024-03-12T21:18:07.429Z,96994.91
2024-03-12T21:20:36.361Z,96993.98
2024-03-12T21:23:05.270Z,96994.83
2024-03-12T21:25:34.812Z,96994.23
2024-03-12T21:28:04.266Z,96995.77
2024-03-12T21:30:32.962Z,96995.21
2024-03-12T21:33:01.260Z,96993.67
2024-03-12T21:35:30.312Z,96993.27
2024-03-12T21:37:58.809Z,96994.86
2024-03-12T21:40:28.213Z,96992.92
2024-03-12T21:42:56.818Z,96992.40
2024-03-12T21:45:26.082Z,96987.96
2024-03-12T21:47:54.308Z,96992.36
2024-03-12T21:50:23.065Z,96990.20
2024-03-12T21:52:52.098Z,96993.11
2024-03-12T21:55:21.080Z,96988.13
2024-03-12T21:57:50.143Z,96992.41
2024-03-12T22:00:20.606Z,96989.98
2024-03-12T22:02:50.074Z,96991.86
2024-03-12T22:05:21.350Z,96985.66
2024-03-12T22:07:50.864Z,96987.77
2024-03-12T22:10:19.964Z,96985.10
2024-03-12T22:12:48.575Z,96983.90
2024-03-12T22:15:17.171Z,96983.55
2024-03-12T22:17:46.866Z,96982.30
2024-03-12T22:20:17.909Z,96984.67
2024-03-12T22:22:46.831Z,96985.64
2024-03-12T22:25:15.593Z,96989.63
2024-03-12T22:27:45.412Z,96987.55
2024-03-12T22:30:13.687Z,96987.11
2024-03-12T22:32:43.508Z,96989.98
2024-03-12T22:35:12.341Z,96990.78
2024-03-12T22:37:43.532Z,96988.77
2024-03-12T22:40:13.836Z,96987.79
2024-03-12T22:42:43.251Z,96991.74
2024-03-12T22:45:12.975Z,96995.26
2024-03-12T22:47:42.231Z,96994.84
2024-03-12T22:50:11.034Z,96996.76
2024-03-12T22:52:41.066Z,97000.48
2024-03-12T22:55:09.917Z,96998.64
2024-03-12T22:57:40.054Z,96993.48
2024-03-12T23:00:32.466Z,96991.48
2024-03-12T23:03:02.758Z,96992.39
2024-03-12T23:05:35.148Z,96989.92
2024-03-12T23:08:09.526Z,96991.46
2024-03-12T23:10:41.946Z,96991.13
2024-03-12T23:13:17.717Z,96990.90
2024-03-12T23:15:46.744Z,96991.95
2024-03-12T23:18:15.169Z,96994.96
2024-03-12T23:20:46.166Z,96992.07
2024-03-12T23:23:14.927Z,96993.10
2024-03-12T23:25:43.776Z,96997.92
2024-03-12T23:28:12.402Z,96995.77
2024-03-12T23:30:41.430Z,96996.23
2024-03-12T23:33:10.138Z,96996.43
2024-03-12T23:35:38.645Z,96999.77
2024-03-12T23:38:07.069Z,96998.30
2024-03-12T23:40:35.560Z,97001.64
2024-03-12T23:43:05.166Z,96999.28
2024-03-12T23:45:33.775Z,97000.15
2024-03-12T23:48:04.268Z,96997.17
2024-03-12T23:50:32.741Z,96996.19
2024-03-12T23:53:03.109Z,96992.73
2024-03-12T23:55:31.640Z,96994.19
2024-03-12T23:58:01.036Z,96995.40
